HEAX/ALY METAR and TAF weather

Enter ICAO airport designator
Station Type Date Time Source
HEAX METAR 2022/12/03 12:00 UTC NOAA

HEAX 031200Z 02008KT 9999 SCT020 22/13 Q1018 NOSIG


Station Type Date Time Source
HEAX Decoded METAR 2022/12/03 12:00 UTC NOAA

Alexandria / Nouzha, Egypt (HEAX) 31-12N 029-57E 7M
Dec 03, 2022 - 07:00 AM EST / 2022.12.03 1200 UTC
Wind: from the NNE (020 degrees) at 9 MPH (8 KT):0
Visibility: greater than 7 mile(s):0
Sky conditions: partly cloudy
Temperature: 71 F (22 C)
Dew Point: 55 F (13 C)
Relative Humidity: 56%
Pressure (altimeter): 30.06 in. Hg (1018 hPa)
ob: HEAX 031200Z 02008KT 9999 SCT020 22/13 Q1018 NOSIG
cycle: 12

Station Type Date Time Source
HEAX TAF 2022/12/04 06:00 UTC NOAA

TAF HEAX 040500Z 0406/0512 03010KT 9999 SCT020

Example: see airport list